createdAt,value
2023-01-30T00:01:19.707Z,98727.34
2023-01-30T00:03:47.178Z,98710.72
2023-01-30T00:06:14.793Z,98699.34
2023-01-30T00:08:41.304Z,98728.75
2023-01-30T00:11:11.484Z,98744.22
2023-01-30T00:13:38.982Z,98750.91
2023-01-30T00:16:06.269Z,98737.16
2023-01-30T00:18:32.858Z,98724.25
2023-01-30T00:21:03.368Z,98731.81
2023-01-30T00:23:32.184Z,98711.03
2023-01-30T00:25:59.655Z,98723.13
2023-01-30T00:28:26.411Z,98727.66
2023-01-30T00:30:55.115Z,98733.63
2023-01-30T00:33:24.740Z,98705.91
2023-01-30T00:35:53.475Z,98689.44
2023-01-30T00:38:21.241Z,98677.31
2023-01-30T00:40:48.709Z,98694.53
2023-01-30T00:43:39.356Z,98707.44
2023-01-30T00:46:45.004Z,98705.63
2023-01-30T00:49:11.598Z,98699.66
2023-01-30T00:51:38.103Z,98703.13
2023-01-30T00:54:04.595Z,98694.34
2023-01-30T00:56:31.131Z,98693.50
2023-01-30T00:58:57.605Z,98674.19
2023-01-30T01:01:24.317Z,98674.72
2023-01-30T01:03:50.906Z,98668.44
2023-01-30T01:06:17.474Z,98664.25
2023-01-30T01:08:43.948Z,98652.06
2023-01-30T01:11:10.520Z,98650.25
2023-01-30T01:13:37.002Z,98636.47
2023-01-30T01:16:03.664Z,98631.16
2023-01-30T01:18:30.130Z,98637.97
2023-01-30T01:20:56.604Z,98624.13
2023-01-30T01:23:23.128Z,98624.97
2023-01-30T01:25:49.661Z,98610.38
2023-01-30T01:28:18.360Z,98614.09
2023-01-30T01:30:44.832Z,98628.03
2023-01-30T01:33:11.263Z,98619.84
2023-01-30T01:35:41.328Z,98617.00
2023-01-30T01:38:07.831Z,98615.31
2023-01-30T01:40:52.850Z,98613.63
2023-01-30T01:43:23.432Z,98616.34
2023-01-30T01:45:57.436Z,98612.66
2023-01-30T01:48:33.444Z,98607.16
2023-01-30T01:51:12.964Z,98603.75
2023-01-30T01:53:50.212Z,98597.47
2023-01-30T01:56:19.372Z,98604.00
2023-01-30T01:58:53.490Z,98609.28
2023-01-30T02:01:20.140Z,98596.38
2023-01-30T02:03:54.353Z,98590.59
2023-01-30T02:06:22.782Z,98592.19
2023-01-30T02:09:00.324Z,98587.72
2023-01-30T02:11:35.885Z,98586.47
2023-01-30T02:14:03.059Z,98588.13
2023-01-30T02:16:29.671Z,98579.94
2023-01-30T02:18:56.370Z,98587.00
2023-01-30T02:22:19.900Z,98579.28
2023-01-30T02:25:19.358Z,98578.44
2023-01-30T02:28:10.679Z,98587.31
2023-01-30T02:30:55.672Z,98593.88
2023-01-30T02:33:53.139Z,98578.84
2023-01-30T02:36:33.793Z,98575.25
2023-01-30T02:40:05.689Z,98568.53
2023-01-30T02:42:59.323Z,98560.56
2023-01-30T02:45:41.145Z,98549.00
2023-01-30T02:48:17.059Z,98550.19
2023-01-30T02:50:54.940Z,98551.13
2023-01-30T02:53:21.810Z,98530.34
2023-01-30T02:55:48.284Z,98528.47
2023-01-30T02:58:21.544Z,98521.34
2023-01-30T03:01:36.043Z,98514.41
2023-01-30T03:04:44.127Z,98515.50
2023-01-30T03:07:40.451Z,98519.53
2023-01-30T03:10:34.238Z,98510.88
2023-01-30T03:13:16.255Z,98511.28
2023-01-30T03:15:53.905Z,98519.44
2023-01-30T03:18:21.531Z,98522.28
2023-01-30T03:20:48.155Z,98527.19
2023-01-30T03:23:14.732Z,98519.81
2023-01-30T03:25:44.213Z,98517.91
2023-01-30T03:28:14.101Z,98516.78
2023-01-30T03:30:40.824Z,98503.59
2023-01-30T03:33:07.405Z,98502.88
2023-01-30T03:35:34.255Z,98492.56
2023-01-30T03:38:00.749Z,98484.47
2023-01-30T03:40:27.380Z,98481.63
2023-01-30T03:42:53.865Z,98480.03
2023-01-30T03:45:20.575Z,98461.91
2023-01-30T03:47:47.163Z,98459.47
2023-01-30T03:50:14.011Z,98451.13
2023-01-30T03:52:40.517Z,98447.41
2023-01-30T03:55:07.701Z,98451.72
2023-01-30T03:57:34.131Z,98443.78
2023-01-30T04:00:00.678Z,98435.16
2023-01-30T04:02:27.213Z,98435.63
2023-01-30T04:04:53.703Z,98438.97
2023-01-30T04:07:20.146Z,98433.53
2023-01-30T04:09:46.698Z,98428.28
2023-01-30T04:12:13.799Z,98431.44
2023-01-30T04:14:40.513Z,98427.44
2023-01-30T04:17:07.007Z,98423.63
2023-01-30T04:19:33.590Z,98416.56
2023-01-30T04:22:00.137Z,98416.47
2023-01-30T04:24:26.612Z,98408.38
2023-01-30T04:26:53.096Z,98402.44
2023-01-30T04:29:19.648Z,98397.72
2023-01-30T04:31:46.086Z,98388.16
2023-01-30T04:34:12.687Z,98382.94
2023-01-30T04:36:39.170Z,98382.22
2023-01-30T04:39:05.722Z,98389.56
2023-01-30T04:41:32.220Z,98386.94
2023-01-30T04:43:58.652Z,98380.06
2023-01-30T04:46:25.210Z,98386.66
2023-01-30T04:48:51.629Z,98389.25
2023-01-30T04:51:18.116Z,98390.28
2023-01-30T04:53:44.657Z,98384.06
2023-01-30T04:56:11.138Z,98373.97
2023-01-30T04:58:37.601Z,98364.56
2023-01-30T05:01:25.311Z,98371.56
2023-01-30T05:03:55.643Z,98364.75
2023-01-30T05:06:23.567Z,98364.03
2023-01-30T05:08:52.211Z,98357.72
2023-01-30T05:11:19.982Z,98353.50
2023-01-30T05:13:46.741Z,98362.16
2023-01-30T05:16:15.729Z,98361.34
2023-01-30T05:18:43.002Z,98360.28
2023-01-30T05:21:19.749Z,98344.06
2023-01-30T05:23:46.910Z,98343.97
2023-01-30T05:26:15.094Z,98349.00
2023-01-30T05:28:42.593Z,98351.06
2023-01-30T05:31:13.961Z,98348.25
2023-01-30T05:33:41.616Z,98344.72
2023-01-30T05:36:15.133Z,98346.19
2023-01-30T05:38:44.552Z,98347.03
2023-01-30T05:41:13.803Z,98352.31
2023-01-30T05:43:40.493Z,98344.38
2023-01-30T05:46:09.718Z,98343.69
2023-01-30T05:48:36.239Z,98343.81
2023-01-30T05:51:03.590Z,98340.78
2023-01-30T05:53:35.987Z,98328.72
2023-01-30T05:56:05.658Z,98335.59
2023-01-30T05:58:33.450Z,98329.31
2023-01-30T06:01:02.623Z,98325.50
2023-01-30T06:03:29.760Z,98326.22
2023-01-30T06:05:56.344Z,98320.03
2023-01-30T06:08:23.423Z,98322.31
2023-01-30T06:10:50.259Z,98332.72
2023-01-30T06:13:16.719Z,98324.91
2023-01-30T06:15:43.295Z,98322.31
2023-01-30T06:18:09.838Z,98320.81
2023-01-30T06:20:37.044Z,98323.50
2023-01-30T06:23:03.544Z,98328.44
2023-01-30T06:25:30.002Z,98312.91
2023-01-30T06:27:56.502Z,98320.25
2023-01-30T06:30:23.104Z,98316.75
2023-01-30T06:32:52.459Z,98321.97
2023-01-30T06:35:19.620Z,98333.13
2023-01-30T06:37:46.507Z,98331.13
2023-01-30T06:40:13.431Z,98339.78
2023-01-30T06:42:45.854Z,98330.66
2023-01-30T06:45:14.502Z,98335.16
2023-01-30T06:47:54.345Z,98331.44
2023-01-30T06:50:25.294Z,98317.72
2023-01-30T06:52:53.877Z,98327.22
2023-01-30T06:55:26.613Z,98336.25
2023-01-30T06:58:11.979Z,98325.84
2023-01-30T07:00:40.725Z,98325.53
2023-01-30T07:03:12.768Z,98338.50
2023-01-30T07:05:40.727Z,98333.81
2023-01-30T07:08:07.401Z,98356.47
2023-01-30T07:10:35.785Z,98363.06
2023-01-30T07:13:03.760Z,98365.41
2023-01-30T07:15:31.343Z,98358.56
2023-01-30T07:17:58.140Z,98368.19
2023-01-30T07:20:24.889Z,98364.09
2023-01-30T07:22:56.619Z,98359.59
2023-01-30T07:25:26.353Z,98356.72
2023-01-30T07:27:58.832Z,98344.34
2023-01-30T07:30:27.913Z,98344.94
2023-01-30T07:33:00.427Z,98372.56
2023-01-30T07:35:31.170Z,98345.06
2023-01-30T07:37:58.302Z,98349.16
2023-01-30T07:40:25.909Z,98359.81
2023-01-30T07:43:04.864Z,98351.84
2023-01-30T07:45:42.247Z,98342.44
2023-01-30T07:48:11.376Z,98347.53
2023-01-30T07:50:38.494Z,98354.81
2023-01-30T07:53:07.906Z,98350.97
2023-01-30T07:55:35.250Z,98349.25
2023-01-30T07:58:02.403Z,98363.97
2023-01-30T08:00:29.203Z,98356.91
2023-01-30T08:02:55.793Z,98351.84
2023-01-30T08:05:22.469Z,98373.75
2023-01-30T08:07:48.965Z,98353.69
2023-01-30T08:10:16.817Z,98352.28
2023-01-30T08:12:43.603Z,98337.47
2023-01-30T08:15:11.104Z,98348.53
2023-01-30T08:17:38.073Z,98345.41
2023-01-30T08:20:05.162Z,98356.78
2023-01-30T08:22:31.679Z,98362.19
2023-01-30T08:24:58.209Z,98355.00
2023-01-30T08:27:24.732Z,98346.34
2023-01-30T08:29:51.376Z,98351.00
2023-01-30T08:32:17.871Z,98359.16
2023-01-30T08:34:44.363Z,98359.09
2023-01-30T08:37:10.805Z,98350.84
2023-01-30T08:39:37.426Z,98350.97
2023-01-30T08:42:04.135Z,98348.03
2023-01-30T08:44:30.589Z,98343.75
2023-01-30T08:46:57.046Z,98343.03
2023-01-30T08:49:23.525Z,98353.38
2023-01-30T08:51:50.074Z,98349.22
2023-01-30T08:54:16.562Z,98344.06
2023-01-30T08:56:43.131Z,98346.25
2023-01-30T08:59:09.626Z,98362.69
2023-01-30T09:01:38.046Z,98356.06
2023-01-30T09:04:04.752Z,98371.84
2023-01-30T09:06:32.047Z,98384.66
2023-01-30T09:09:00.151Z,98365.34
2023-01-30T09:11:27.050Z,98368.78
2023-01-30T09:13:53.758Z,98367.88
2023-01-30T09:16:20.324Z,98356.16
2023-01-30T09:18:46.864Z,98345.97
2023-01-30T09:21:14.084Z,98343.81
2023-01-30T09:23:41.291Z,98345.34
2023-01-30T09:26:08.461Z,98352.91
2023-01-30T09:28:35.519Z,98348.41
2023-01-30T09:31:02.614Z,98356.50
2023-01-30T09:33:29.450Z,98330.59
2023-01-30T09:35:56.369Z,98318.63
2023-01-30T09:38:22.904Z,98326.63
2023-01-30T09:41:13.641Z,98340.56
2023-01-30T09:44:01.395Z,98344.56
2023-01-30T09:47:09.706Z,98347.97
2023-01-30T09:50:02.858Z,98351.41
2023-01-30T09:53:00.108Z,98364.41
2023-01-30T09:55:37.010Z,98359.00
2023-01-30T09:58:03.542Z,98373.75
2023-01-30T10:00:42.206Z,98365.03
2023-01-30T10:03:08.699Z,98359.94
2023-01-30T10:05:54.294Z,98366.78
2023-01-30T10:08:32.723Z,98363.19
2023-01-30T10:11:30.310Z,98363.00
2023-01-30T10:14:13.123Z,98381.19
2023-01-30T10:17:02.445Z,98371.63
2023-01-30T10:20:03.372Z,98369.63
2023-01-30T10:22:45.847Z,98377.16
2023-01-30T10:25:37.549Z,98387.13
2023-01-30T10:28:16.245Z,98386.84
2023-01-30T10:30:47.833Z,98394.59
2023-01-30T10:33:28.811Z,98393.22
2023-01-30T10:36:25.035Z,98401.28
2023-01-30T10:38:55.166Z,98399.34
2023-01-30T10:42:19.589Z,98410.19
2023-01-30T10:44:47.762Z,98409.72
2023-01-30T10:47:47.441Z,98405.72
2023-01-30T10:50:45.215Z,98402.78
2023-01-30T10:53:21.304Z,98405.72
2023-01-30T10:55:52.885Z,98423.88
2023-01-30T10:58:36.448Z,98418.28
2023-01-30T11:01:24.223Z,98418.88
2023-01-30T11:03:59.725Z,98421.94
2023-01-30T11:06:26.614Z,98410.03
2023-01-30T11:08:56.037Z,98416.41
2023-01-30T11:11:47.368Z,98410.75
2023-01-30T11:14:13.910Z,98415.81
2023-01-30T11:16:47.478Z,98415.91
2023-01-30T11:19:20.824Z,98416.75
2023-01-30T11:21:56.312Z,98422.19
2023-01-30T11:24:31.456Z,98434.03
2023-01-30T11:27:35.051Z,98423.97
2023-01-30T11:30:14.473Z,98401.28
2023-01-30T11:32:44.467Z,98396.34
2023-01-30T11:35:13.884Z,98397.38
2023-01-30T11:37:43.889Z,98409.59
2023-01-30T11:40:28.366Z,98407.41
2023-01-30T11:43:10.649Z,98415.50
2023-01-30T11:45:41.896Z,98413.09
2023-01-30T11:48:33.015Z,98409.28
2023-01-30T11:51:05.949Z,98409.78
2023-01-30T11:53:46.368Z,98412.81
2023-01-30T11:56:40.473Z,98434.38
2023-01-30T11:59:47.507Z,98416.22
2023-01-30T12:02:24.279Z,98421.63
2023-01-30T12:04:59.399Z,98422.09
2023-01-30T12:07:29.653Z,98421.56
2023-01-30T12:09:58.450Z,98433.38
2023-01-30T12:12:49.077Z,98425.69
2023-01-30T12:15:31.829Z,98426.47
2023-01-30T12:18:36.296Z,98436.59
2023-01-30T12:21:21.568Z,98441.06
2023-01-30T12:24:09.875Z,98426.47
2023-01-30T12:26:47.091Z,98423.53
2023-01-30T12:29:29.769Z,98427.78
2023-01-30T12:32:12.259Z,98403.91
2023-01-30T12:34:38.955Z,98424.50
2023-01-30T12:37:40.250Z,98418.81
2023-01-30T12:40:40.559Z,98429.13
2023-01-30T12:43:25.679Z,98413.06
2023-01-30T12:46:08.359Z,98429.72
2023-01-30T12:49:25.835Z,98415.84
2023-01-30T12:52:41.013Z,98421.81
2023-01-30T12:55:34.673Z,98447.66
2023-01-30T12:58:24.192Z,98433.56
2023-01-30T13:01:29.540Z,98437.94
2023-01-30T13:04:34.367Z,98437.34
2023-01-30T13:07:28.496Z,98436.69
2023-01-30T13:10:23.268Z,98442.38
2023-01-30T13:13:45.987Z,98452.75
2023-01-30T13:16:32.647Z,98456.75
2023-01-30T13:19:40.968Z,98465.75
2023-01-30T13:22:35.219Z,98474.09
2023-01-30T13:25:53.696Z,98475.09
2023-01-30T13:28:27.508Z,98473.28
2023-01-30T13:30:56.540Z,98476.38
2023-01-30T13:33:35.350Z,98473.97
2023-01-30T13:36:26.006Z,98461.84
2023-01-30T13:39:04.838Z,98461.94
2023-01-30T13:41:44.209Z,98455.31
2023-01-30T13:44:23.118Z,98460.63
2023-01-30T13:46:54.347Z,98461.69
2023-01-30T13:49:37.908Z,98463.97
2023-01-30T13:52:46.612Z,98474.09
2023-01-30T13:55:54.053Z,98487.25
2023-01-30T13:58:53.344Z,98511.47
2023-01-30T14:01:21.013Z,98511.19
2023-01-30T14:03:47.479Z,98500.84
2023-01-30T14:06:37.258Z,98498.41
2023-01-30T14:09:20.158Z,98503.69
2023-01-30T14:11:59.678Z,98507.47
2023-01-30T14:14:34.097Z,98513.09
2023-01-30T14:17:27.305Z,98501.34
2023-01-30T14:20:01.613Z,98510.72
2023-01-30T14:22:42.275Z,98509.75
2023-01-30T14:25:30.285Z,98514.34
2023-01-30T14:27:59.739Z,98517.47
2023-01-30T14:30:55.246Z,98520.53
2023-01-30T14:33:21.743Z,98542.22
2023-01-30T14:35:58.144Z,98532.00
2023-01-30T14:38:39.179Z,98535.28
2023-01-30T14:41:05.741Z,98544.47
2023-01-30T14:43:41.534Z,98539.81
2023-01-30T14:46:18.894Z,98543.25
2023-01-30T14:48:54.119Z,98538.50
2023-01-30T14:51:40.251Z,98545.22
2023-01-30T14:54:12.924Z,98546.44
2023-01-30T14:56:58.662Z,98569.72
2023-01-30T14:59:52.032Z,98566.09
2023-01-30T15:02:30.369Z,98571.66
2023-01-30T15:05:13.868Z,98569.69
2023-01-30T15:07:53.569Z,98571.34
2023-01-30T15:11:19.089Z,98580.19
2023-01-30T15:14:17.746Z,98588.63
2023-01-30T15:17:21.725Z,98593.75
2023-01-30T15:20:48.061Z,98597.34
2023-01-30T15:23:29.461Z,98591.75
2023-01-30T15:26:18.552Z,98604.59
2023-01-30T15:29:02.512Z,98604.59
2023-01-30T15:31:29.117Z,98609.69
2023-01-30T15:33:58.882Z,98606.59
2023-01-30T15:36:34.006Z,98617.28
2023-01-30T15:39:06.341Z,98615.69
2023-01-30T15:41:41.259Z,98615.75
2023-01-30T15:44:50.912Z,98615.50
2023-01-30T15:47:39.937Z,98627.16
2023-01-30T15:50:10.207Z,98644.16
2023-01-30T15:52:50.214Z,98644.88
2023-01-30T15:55:32.100Z,98646.13
2023-01-30T15:58:06.217Z,98659.13
2023-01-30T16:00:44.091Z,98662.25
2023-01-30T16:03:17.098Z,98668.94
2023-01-30T16:05:49.729Z,98683.34
2023-01-30T16:08:23.638Z,98689.59
2023-01-30T16:10:51.694Z,98701.16
2023-01-30T16:13:21.149Z,98695.00
2023-01-30T16:16:13.694Z,98696.41
2023-01-30T16:18:56.484Z,98708.16
2023-01-30T16:21:37.369Z,98708.53
2023-01-30T16:24:18.001Z,98715.88
2023-01-30T16:26:52.790Z,98720.50
2023-01-30T16:29:26.626Z,98734.28
2023-01-30T16:31:55.350Z,98738.31
2023-01-30T16:34:38.179Z,98738.06
2023-01-30T16:37:27.613Z,98743.94
2023-01-30T16:40:23.130Z,98757.63
2023-01-30T16:43:01.939Z,98761.34
2023-01-30T16:45:34.392Z,98758.22
2023-01-30T16:48:32.980Z,98777.25
2023-01-30T16:50:59.591Z,98779.97
2023-01-30T16:53:30.748Z,98768.03
2023-01-30T16:56:02.290Z,98776.69
2023-01-30T16:58:34.079Z,98770.75
2023-01-30T17:01:08.206Z,98782.91
2023-01-30T17:03:40.315Z,98783.75
2023-01-30T17:06:19.651Z,98791.72
2023-01-30T17:08:52.031Z,98793.41
2023-01-30T17:11:41.448Z,98794.09
2023-01-30T17:14:25.687Z,98802.16
2023-01-30T17:17:08.616Z,98805.38
2023-01-30T17:19:36.331Z,98801.72
2023-01-30T17:22:07.909Z,98811.38
2023-01-30T17:24:35.962Z,98814.63
2023-01-30T17:27:04.412Z,98814.38
2023-01-30T17:29:48.892Z,98822.34
2023-01-30T17:32:16.035Z,98824.97
2023-01-30T17:34:42.704Z,98829.28
2023-01-30T17:37:23.041Z,98834.94
2023-01-30T17:39:49.669Z,98839.78
2023-01-30T17:42:21.928Z,98839.00
2023-01-30T17:44:48.869Z,98839.00
2023-01-30T17:47:16.812Z,98843.59
2023-01-30T17:49:43.640Z,98843.09
2023-01-30T17:52:14.040Z,98835.91
2023-01-30T17:54:40.783Z,98844.88
2023-01-30T17:57:11.643Z,98849.66
2023-01-30T17:59:38.099Z,98846.31
2023-01-30T18:02:05.032Z,98858.50
2023-01-30T18:04:31.515Z,98861.75
2023-01-30T18:07:06.257Z,98866.81
2023-01-30T18:09:32.789Z,98860.66
2023-01-30T18:11:59.533Z,98861.16
2023-01-30T18:14:26.005Z,98869.66
2023-01-30T18:16:52.970Z,98863.81
2023-01-30T18:19:23.784Z,98881.28
2023-01-30T18:21:50.383Z,98893.38
2023-01-30T18:24:16.904Z,98891.59
2023-01-30T18:26:43.526Z,98888.09
2023-01-30T18:29:10.852Z,98891.91
2023-01-30T18:31:40.150Z,98879.38
2023-01-30T18:34:07.554Z,98882.72
2023-01-30T18:36:35.857Z,98895.16
2023-01-30T18:39:03.751Z,98894.41
2023-01-30T18:41:30.816Z,98897.91
2023-01-30T18:44:01.135Z,98891.13
2023-01-30T18:46:29.404Z,98880.25
2023-01-30T18:48:57.414Z,98896.84
2023-01-30T18:51:32.914Z,98898.38
2023-01-30T18:54:01.070Z,98905.22
2023-01-30T18:56:31.614Z,98907.06
2023-01-30T18:59:02.355Z,98909.94
2023-01-30T19:01:34.549Z,98902.44
2023-01-30T19:04:03.935Z,98901.09
2023-01-30T19:06:30.567Z,98898.28
2023-01-30T19:08:57.706Z,98902.31
2023-01-30T19:11:43.381Z,98904.88
2023-01-30T19:14:10.806Z,98900.97
2023-01-30T19:16:39.195Z,98899.59
2023-01-30T19:19:07.471Z,98898.56
2023-01-30T19:21:35.390Z,98907.78
2023-01-30T19:24:07.321Z,98902.09
2023-01-30T19:26:35.009Z,98915.06
2023-01-30T19:29:01.808Z,98917.78
2023-01-30T19:31:28.513Z,98916.75
2023-01-30T19:34:00.612Z,98918.00
2023-01-30T19:36:30.216Z,98919.69
2023-01-30T19:38:59.437Z,98927.09
2023-01-30T19:41:30.353Z,98936.69
2023-01-30T19:43:59.613Z,98934.84
2023-01-30T19:46:28.718Z,98932.25
2023-01-30T19:48:55.610Z,98934.63
2023-01-30T19:51:29.055Z,98953.13
2023-01-30T19:54:02.667Z,98937.28
2023-01-30T19:56:30.191Z,98940.16
2023-01-30T19:58:59.358Z,98956.84
2023-01-30T20:01:30.496Z,98956.34
2023-01-30T20:03:59.026Z,98959.88
2023-01-30T20:06:32.686Z,98959.88
2023-01-30T20:09:09.571Z,98972.22
2023-01-30T20:11:38.724Z,98969.59
2023-01-30T20:14:07.106Z,98978.09
2023-01-30T20:16:35.648Z,98979.31
2023-01-30T20:19:06.783Z,98988.44
2023-01-30T20:21:34.390Z,98983.38
2023-01-30T20:24:01.933Z,98985.41
2023-01-30T20:26:35.828Z,98983.09
2023-01-30T20:29:04.760Z,98993.22
2023-01-30T20:31:31.988Z,98997.66
2023-01-30T20:34:04.371Z,98989.03
2023-01-30T20:36:31.328Z,99002.16
2023-01-30T20:39:03.887Z,99009.56
2023-01-30T20:41:32.403Z,99015.38
2023-01-30T20:43:59.333Z,99003.47
2023-01-30T20:46:34.479Z,99015.66
2023-01-30T20:49:01.453Z,99029.13
2023-01-30T20:51:31.393Z,99026.47
2023-01-30T20:54:02.901Z,99024.19
2023-01-30T20:56:42.987Z,99031.97
2023-01-30T20:59:12.015Z,99030.69
2023-01-30T21:01:40.645Z,99041.25
2023-01-30T21:04:14.027Z,99038.88
2023-01-30T21:06:45.439Z,99053.56
2023-01-30T21:09:20.144Z,99054.91
2023-01-30T21:11:48.610Z,99061.16
2023-01-30T21:14:16.502Z,99061.94
2023-01-30T21:16:43.800Z,99065.06
2023-01-30T21:19:15.771Z,99074.69
2023-01-30T21:21:53.344Z,99074.25
2023-01-30T21:24:29.263Z,99080.69
2023-01-30T21:26:56.763Z,99090.00
2023-01-30T21:29:26.672Z,99092.81
2023-01-30T21:31:54.555Z,99094.59
2023-01-30T21:34:21.643Z,99101.91
2023-01-30T21:37:08.105Z,99089.94
2023-01-30T21:39:53.244Z,99099.97
2023-01-30T21:42:39.099Z,99111.84
2023-01-30T21:45:06.705Z,99115.31
2023-01-30T21:47:33.232Z,99117.41
2023-01-30T21:49:59.726Z,99110.44
2023-01-30T21:52:26.234Z,99118.03
2023-01-30T21:54:52.699Z,99119.38
2023-01-30T21:57:19.182Z,99129.00
2023-01-30T21:59:46.063Z,99122.91
2023-01-30T22:02:12.569Z,99125.31
2023-01-30T22:04:39.083Z,99116.78
2023-01-30T22:07:06.938Z,99127.41
2023-01-30T22:09:33.801Z,99111.91
2023-01-30T22:12:00.314Z,99131.09
2023-01-30T22:14:26.923Z,99122.47
2023-01-30T22:16:53.535Z,99131.53
2023-01-30T22:19:20.025Z,99129.94
2023-01-30T22:21:46.519Z,99136.63
2023-01-30T22:24:13.036Z,99139.09
2023-01-30T22:26:39.702Z,99142.25
2023-01-30T22:29:06.453Z,99142.09
2023-01-30T22:31:37.443Z,99149.59
2023-01-30T22:34:05.096Z,99147.72
2023-01-30T22:36:33.966Z,99149.91
2023-01-30T22:39:01.747Z,99149.97
2023-01-30T22:41:34.558Z,99139.59
2023-01-30T22:44:04.374Z,99151.00
2023-01-30T22:46:36.190Z,99143.06
2023-01-30T22:49:05.779Z,99144.00
2023-01-30T22:51:39.657Z,99149.13
2023-01-30T22:54:11.492Z,99152.84
2023-01-30T22:56:43.782Z,99159.88
2023-01-30T22:59:11.857Z,99154.31
2023-01-30T23:01:42.344Z,99149.16
2023-01-30T23:04:17.491Z,99153.47
2023-01-30T23:06:45.696Z,99162.88
2023-01-30T23:09:19.468Z,99150.69
2023-01-30T23:12:14.823Z,99148.34
2023-01-30T23:14:42.708Z,99153.47
2023-01-30T23:17:27.885Z,99154.03
2023-01-30T23:19:55.022Z,99159.09
2023-01-30T23:22:22.395Z,99153.56
2023-01-30T23:24:50.931Z,99150.06
2023-01-30T23:27:20.801Z,99157.41
2023-01-30T23:29:47.332Z,99158.22
2023-01-30T23:32:14.857Z,99157.41
2023-01-30T23:34:41.295Z,99161.78
2023-01-30T23:37:07.835Z,99153.78
2023-01-30T23:39:34.285Z,99151.53
2023-01-30T23:42:00.731Z,99162.91
2023-01-30T23:44:27.227Z,99155.13
2023-01-30T23:46:53.716Z,99156.56
2023-01-30T23:49:20.298Z,99152.44
2023-01-30T23:51:46.766Z,99147.06
2023-01-30T23:54:14.352Z,99143.34
2023-01-30T23:56:44.600Z,99144.25
2023-01-30T23:59:12.275Z,99140.69
